Pagrindinis puslapis
METAR-TAF:

METAR-TAF

Oro uostai :

Kečkemėtas, Vengrija

platuma: 46-55N, ilguma: 019-45E, Aukštis: 113 m

Dabartinis oras

Ataskaita buvo paskelbta 23 minutes, ne 22:45 UTC
Vėjas 4 kt iš Vakarų/Pietvakarių
Temperatūra 0°C
Drėgmė 100%
Slėgis 1016 hPa
Matomumas: 0200 m
Apsiniaukę ne aukštis 200 ft
įšaldymas rūko

METAR: LHKE 272245Z 25004KT 0200 FZFG OVC002 M00/M00 Q1016 R12/19//95 NOSIG RMK RED

Laikas: 00:08 (23:08 UTC)

Prognozė

Ataskaita buvo paskelbta 2 valandos ir 53 minutes, ne 20:15 UTC
Prognozė galioja nuo 27 metu 21 UTC su 28 metu 06 UTC
Vėjas 4 kt iš Pietvakarių
Matomumas: 0350 m
Apsiniaukę ne aukštis 200 ft
įšaldymas rūko
Laikinai
nuo 27 metu 21 UTC su 28 metu 06 UTC
Matomumas: 0100 m
ne aukštis 100 ft
įšaldymas rūko, (silpnas) ledijantis, dulksna
Tapsmas
nuo 27 metu 21 UTC su 27 metu 24 UTC
Vėjas 4 kt iš Pietų

TAF: LHKE 272015Z 2721/2806 23004KT 0350 FZFG OVC002 TEMPO 2721/2806 0100 FZFG -FZDZ VV001 BECMG 2721/2724 17004KT

Orai ataskaitas ir orų prognozės (METAR, TAF).

turimą stotys yra geltonos ir raudonos taškus žemėlapyje.

Perkelti pele per norėdami pamatyti stoties vardą.

Tada spustelėkite, norėdami matyti oro stebėjimo ir prognozės.

Norėdami pakeisti žemėlapį: spustelėkite ant žalios mygtukų su juodo kryžiaus žemyn,; žalią mygtuką su brūkšneliu, jei norite nutolinti; arba žalių rodyklių gretimoms žemėlapius.


METAR-TAF: